Time;durP1;ratioP1;P1;durP2;ratioP2;P2;SDS_P1;SDS_P2;PMS_P1;PMS_P2;Temp;Humidity;BMP_temperature;BMP_pressure;BME280_temperature;BME280_humidity;BME280_pressure;Samples;Min_cycle;Max_cycle;Signal;HPM_P1;HPM_P2
2023/12/15 00:00:31;;;;;;;8.90;8.50;;;4.50;99.90;;;;;;4988406;28;20514;-64
2023/12/15 00:02:58;;;;;;;8.70;8.30;;;4.40;99.90;;;;;;4988961;28;20202;-65
2023/12/15 00:05:25;;;;;;;8.80;8.40;;;4.30;99.90;;;;;;4972658;28;20733;-64
2023/12/15 00:07:53;;;;;;;8.80;8.40;;;4.40;99.90;;;;;;4989579;28;20347;-64
2023/12/15 00:10:20;;;;;;;8.60;8.20;;;4.30;99.90;;;;;;4986159;28;20194;-65
2023/12/15 00:12:47;;;;;;;8.80;8.40;;;4.40;99.90;;;;;;4961235;28;20226;-65
2023/12/15 00:15:14;;;;;;;8.70;8.30;;;4.40;99.90;;;;;;4972298;28;20300;-65
2023/12/15 00:17:41;;;;;;;9.10;8.70;;;4.40;99.90;;;;;;4988054;28;20217;-65
2023/12/15 00:20:09;;;;;;;9.20;8.80;;;4.50;99.90;;;;;;4986936;28;20198;-63
2023/12/15 00:22:36;;;;;;;9.17;8.77;;;4.40;99.90;;;;;;4988734;28;20654;-65
2023/12/15 00:25:03;;;;;;;8.70;8.30;;;4.30;99.90;;;;;;4993011;28;20205;-64
2023/12/15 00:27:30;;;;;;;8.80;8.40;;;4.30;99.90;;;;;;4979162;28;20237;-65
2023/12/15 00:29:57;;;;;;;8.53;8.13;;;4.30;99.90;;;;;;4997350;28;20202;-71
2023/12/15 00:32:24;;;;;;;8.80;8.40;;;4.40;99.90;;;;;;4988148;28;20260;-71
2023/12/15 00:34:52;;;;;;;9.00;8.60;;;4.40;99.90;;;;;;4987586;28;20196;-70
2023/12/15 00:37:20;;;;;;;9.10;8.70;;;4.50;99.90;;;;;;4988364;28;20674;-70
2023/12/15 00:39:48;;;;;;;8.87;8.47;;;4.50;99.90;;;;;;4989615;28;20276;-70
2023/12/15 00:42:15;;;;;;;8.70;8.30;;;4.60;99.90;;;;;;4991709;28;20222;-71
2023/12/15 00:44:42;;;;;;;8.60;8.20;;;4.60;99.90;;;;;;4990147;28;20802;-70
2023/12/15 00:47:09;;;;;;;8.30;7.90;;;4.70;99.90;;;;;;4992271;28;20197;-70
2023/12/15 00:49:36;;;;;;;8.53;8.13;;;4.70;99.90;;;;;;4985900;28;20201;-71
2023/12/15 00:52:03;;;;;;;8.43;8.03;;;4.70;99.90;;;;;;4985948;28;20217;-70
2023/12/15 00:54:30;;;;;;;8.20;7.80;;;4.70;99.90;;;;;;4986770;28;20697;-71
2023/12/15 00:56:57;;;;;;;20.47;19.03;;;4.70;99.90;;;;;;4984945;28;20256;-71
2023/12/15 00:59:24;;;;;;;8.30;7.90;;;4.70;99.90;;;;;;4984564;28;20662;-70
2023/12/15 01:01:51;;;;;;;8.70;8.30;;;4.70;99.90;;;;;;4987908;28;20304;-69
2023/12/15 01:04:18;;;;;;;8.70;8.30;;;4.70;99.90;;;;;;4988030;28;20209;-71
2023/12/15 01:06:45;;;;;;;8.80;8.40;;;4.70;99.90;;;;;;4984981;28;20505;-71
2023/12/15 01:09:12;;;;;;;8.73;8.33;;;4.80;99.90;;;;;;4958604;28;20214;-66
2023/12/15 01:11:39;;;;;;;9.00;8.60;;;4.80;99.90;;;;;;4987888;28;20203;-64
2023/12/15 01:14:06;;;;;;;9.10;8.70;;;4.80;99.90;;;;;;4998850;28;20659;-68
2023/12/15 01:16:33;;;;;;;9.23;8.83;;;4.80;99.90;;;;;;4985205;28;20209;-63
2023/12/15 01:19:00;;;;;;;9.13;8.73;;;4.80;99.90;;;;;;4985449;28;20201;-63
2023/12/15 01:21:27;;;;;;;10.10;9.63;;;4.80;99.90;;;;;;4988943;28;20205;-64
2023/12/15 01:23:54;;;;;;;9.30;8.90;;;4.80;99.90;;;;;;4984869;28;20728;-64
2023/12/15 01:26:21;;;;;;;9.30;8.90;;;4.80;99.90;;;;;;4982436;28;20273;-65
2023/12/15 01:28:48;;;;;;;9.40;9.00;;;4.70;99.90;;;;;;5006529;28;20193;-64
2023/12/15 01:31:15;;;;;;;9.27;8.87;;;4.70;99.90;;;;;;5008127;28;20197;-62
2023/12/15 01:33:42;;;;;;;9.20;8.80;;;4.60;99.90;;;;;;5005910;28;20218;-64
2023/12/15 01:36:09;;;;;;;9.23;8.83;;;4.60;99.90;;;;;;4981971;28;20666;-62
2023/12/15 01:38:36;;;;;;;9.07;8.67;;;4.70;99.90;;;;;;5008755;28;20193;-63
2023/12/15 01:41:03;;;;;;;9.10;8.70;;;4.70;99.90;;;;;;5009656;28;20193;-62
2023/12/15 01:43:30;;;;;;;8.80;8.40;;;4.70;99.90;;;;;;4988387;28;20209;-66
2023/12/15 01:45:57;;;;;;;8.70;8.30;;;4.80;99.90;;;;;;5003801;28;20201;-64
2023/12/15 01:48:38;;;;;;;8.90;8.50;;;4.80;99.90;;;;;;4999958;28;20208;-64
2023/12/15 01:51:05;;;;;;;8.80;8.40;;;4.90;99.90;;;;;;5010096;28;20193;-64
2023/12/15 01:53:32;;;;;;;11.33;10.80;;;4.90;99.90;;;;;;5010002;28;20217;-66
2023/12/15 01:56:00;;;;;;;8.80;8.40;;;4.90;99.90;;;;;;5022380;28;20193;-64
2023/12/15 01:58:27;;;;;;;8.70;8.30;;;5.00;99.90;;;;;;4979635;28;20201;-63
2023/12/15 02:00:54;;;;;;;8.93;8.53;;;5.00;99.90;;;;;;5002088;28;20213;-64
2023/12/15 02:03:21;;;;;;;9.10;8.70;;;5.00;99.90;;;;;;4991033;28;20220;-64
2023/12/15 02:05:48;;;;;;;8.97;8.57;;;5.10;99.90;;;;;;5008461;28;20258;-63
2023/12/15 02:08:15;;;;;;;9.27;8.87;;;5.10;99.90;;;;;;4997100;28;20197;-64
2023/12/15 02:10:42;;;;;;;28.07;18.03;;;5.10;99.90;;;;;;4977514;28;20213;-63
2023/12/15 02:13:09;;;;;;;25.10;19.03;;;5.10;99.90;;;;;;4987345;28;20232;-64
2023/12/15 02:15:36;;;;;;;24.47;18.23;;;5.10;99.90;;;;;;4988429;28;20205;-64
2023/12/15 02:18:03;;;;;;;27.70;18.90;;;5.10;99.90;;;;;;4985605;28;20201;-64
2023/12/15 02:20:31;;;;;;;27.07;18.20;;;5.10;99.90;;;;;;5009228;28;20650;-64
2023/12/15 02:22:59;;;;;;;29.23;18.63;;;5.10;99.90;;;;;;4985064;28;20190;-64
2023/12/15 02:25:26;;;;;;;26.60;17.60;;;5.20;99.90;;;;;;5007089;28;20197;-64
2023/12/15 02:27:53;;;;;;;26.67;18.73;;;5.20;99.90;;;;;;4989727;28;20732;-64
2023/12/15 02:30:21;;;;;;;33.90;19.13;;;5.30;99.90;;;;;;5008877;28;20275;-66
2023/12/15 02:32:48;;;;;;;27.90;19.00;;;5.20;99.90;;;;;;4989335;28;20224;-64
2023/12/15 02:35:16;;;;;;;29.33;17.77;;;5.20;99.90;;;;;;5007852;28;20347;-64
2023/12/15 02:37:44;;;;;;;26.77;17.87;;;5.30;99.90;;;;;;4974403;28;20303;-64
2023/12/15 02:40:11;;;;;;;30.53;18.53;;;5.30;99.90;;;;;;4991133;28;20283;-64
2023/12/15 02:42:38;;;;;;;30.20;18.40;;;5.30;99.90;;;;;;4990413;28;20196;-64
2023/12/15 02:45:06;;;;;;;28.17;17.73;;;5.30;99.90;;;;;;4992200;28;20196;-64
2023/12/15 02:47:33;;;;;;;29.83;18.63;;;5.30;99.90;;;;;;4998336;28;20212;-65
2023/12/15 02:50:01;;;;;;;32.03;19.87;;;5.30;99.90;;;;;;4990505;28;20232;-64
2023/12/15 02:52:28;;;;;;;28.00;18.70;;;5.30;99.90;;;;;;4973739;28;20251;-63
2023/12/15 02:54:55;;;;;;;26.00;18.40;;;5.30;99.90;;;;;;5007795;28;20270;-61
2023/12/15 02:57:22;;;;;;;31.00;18.53;;;5.30;99.90;;;;;;4993409;28;20228;-62
2023/12/15 02:59:49;;;;;;;36.70;19.70;;;5.30;99.90;;;;;;4988651;28;20271;-62
2023/12/15 03:06:16;;;;;;;28.57;18.53;;;5.40;99.90;;;;;;5001610;28;20637;-65
2023/12/15 03:08:43;;;;;;;30.43;18.33;;;5.40;99.90;;;;;;5011356;28;20215;-64
2023/12/15 03:11:10;;;;;;;32.83;19.17;;;5.30;99.90;;;;;;5012415;28;20665;-64
2023/12/15 03:13:40;;;;;;;29.57;19.17;;;5.30;99.90;;;;;;4993447;28;20215;-63
2023/12/15 03:16:11;;;;;;;33.00;19.20;;;5.30;99.90;;;;;;4989075;28;20233;-63
2023/12/15 03:18:38;;;;;;;33.30;18.20;;;5.30;99.90;;;;;;4990858;28;20194;-64
2023/12/15 03:21:05;;;;;;;46.17;20.07;;;5.30;99.90;;;;;;4989046;28;20247;-65
2023/12/15 03:23:32;;;;;;;32.47;18.83;;;5.20;99.90;;;;;;5010939;28;20209;-66
2023/12/15 03:26:00;;;;;;;30.00;17.47;;;5.20;99.90;;;;;;4994218;28;20681;-67
2023/12/15 03:28:27;;;;;;;30.30;19.27;;;5.20;99.90;;;;;;4983860;28;20237;-65
2023/12/15 03:30:54;;;;;;;28.67;18.23;;;5.30;99.90;;;;;;5010069;28;20296;-66
2023/12/15 03:33:25;;;;;;;26.77;18.43;;;5.30;99.90;;;;;;5016301;28;20195;-64
2023/12/15 03:35:52;;;;;;;37.43;19.77;;;5.30;99.90;;;;;;4996102;28;20346;-65
2023/12/15 03:38:20;;;;;;;29.20;18.67;;;5.30;99.90;;;;;;4993773;28;20197;-64
2023/12/15 03:40:47;;;;;;;33.30;19.00;;;5.30;99.90;;;;;;4993082;28;20267;-64
2023/12/15 03:43:14;;;;;;;32.53;19.67;;;5.40;99.90;;;;;;4992446;28;20642;-64
2023/12/15 03:45:42;;;;;;;32.77;19.50;;;5.40;99.90;;;;;;5009197;28;20201;-64
2023/12/15 03:48:09;;;;;;;32.13;19.53;;;5.50;99.90;;;;;;5008904;28;20192;-64
2023/12/15 03:50:36;;;;;;;43.33;20.00;;;5.50;99.90;;;;;;5006549;28;20618;-64
2023/12/15 03:53:03;;;;;;;37.23;19.77;;;5.40;99.90;;;;;;4995614;28;20543;-64
2023/12/15 03:55:30;;;;;;;42.30;20.00;;;5.40;99.90;;;;;;5010811;28;20646;-64
2023/12/15 03:57:57;;;;;;;37.70;21.53;;;5.50;99.90;;;;;;5004755;28;20201;-69
2023/12/15 04:00:24;;;;;;;32.73;20.53;;;5.50;99.90;;;;;;4987490;28;20207;-70
2023/12/15 04:02:51;;;;;;;38.53;20.93;;;5.50;99.90;;;;;;5007797;28;20220;-70
2023/12/15 04:05:19;;;;;;;36.63;20.37;;;5.50;99.90;;;;;;5005286;28;20328;-70
2023/12/15 04:07:46;;;;;;;30.03;20.60;;;5.60;99.90;;;;;;5008980;28;20311;-70
2023/12/15 04:10:13;;;;;;;36.57;19.67;;;5.60;99.90;;;;;;5008284;28;20213;-70
2023/12/15 04:12:40;;;;;;;33.83;20.33;;;5.60;99.90;;;;;;4989639;28;20632;-69
2023/12/15 04:15:10;;;;;;;40.97;20.47;;;5.60;99.90;;;;;;5006114;28;20551;-69
2023/12/15 04:17:37;;;;;;;32.53;20.87;;;5.60;99.90;;;;;;4973328;28;20201;-69
2023/12/15 04:20:08;;;;;;;41.03;22.40;;;5.60;99.90;;;;;;5006924;28;20215;-69
2023/12/15 04:22:35;;;;;;;37.23;22.63;;;5.60;99.90;;;;;;4997843;28;20200;-69
2023/12/15 04:25:02;;;;;;;35.00;22.90;;;5.60;99.90;;;;;;5006984;28;20298;-69
2023/12/15 04:27:30;;;;;;;45.73;22.47;;;5.70;99.90;;;;;;5008374;28;20245;-69
2023/12/15 04:29:58;;;;;;;42.10;23.50;;;5.70;99.90;;;;;;5009647;28;20200;-68
2023/12/15 04:32:24;;;;;;;43.83;24.70;;;5.70;99.90;;;;;;4998929;28;20577;-70
2023/12/15 04:34:52;;;;;;;38.33;23.00;;;5.70;99.90;;;;;;5008082;28;20604;-71
2023/12/15 04:37:19;;;;;;;43.03;22.70;;;5.70;99.90;;;;;;5010457;28;20228;-70
2023/12/15 04:39:46;;;;;;;40.00;22.70;;;5.70;99.90;;;;;;4981069;28;20271;-66
2023/12/15 04:42:13;;;;;;;33.37;22.20;;;5.70;99.90;;;;;;5004926;28;20616;-65
2023/12/15 04:44:41;;;;;;;34.00;22.60;;;5.70;99.90;;;;;;4974110;28;20670;-66
2023/12/15 04:47:08;;;;;;;32.80;21.57;;;5.70;99.90;;;;;;5004041;28;20200;-69
2023/12/15 04:49:35;;;;;;;41.17;23.37;;;5.70;99.90;;;;;;4989420;28;20201;-65
2023/12/15 04:52:02;;;;;;;31.83;21.83;;;5.80;99.90;;;;;;5000656;28;20254;-65
2023/12/15 04:54:29;;;;;;;37.03;22.17;;;5.80;99.90;;;;;;5005065;28;20296;-66
2023/12/15 04:56:56;;;;;;;33.80;20.67;;;5.80;99.90;;;;;;4990743;28;20283;-64
2023/12/15 04:59:23;;;;;;;43.20;21.87;;;5.80;99.90;;;;;;4991891;28;20311;-63
2023/12/15 05:01:50;;;;;;;35.57;21.07;;;5.80;99.90;;;;;;5011434;28;20193;-63
2023/12/15 05:04:17;;;;;;;35.27;21.63;;;5.80;99.90;;;;;;4992948;28;20211;-64
2023/12/15 05:06:44;;;;;;;34.67;20.90;;;5.80;99.90;;;;;;4987150;28;20681;-64
2023/12/15 05:09:11;;;;;;;37.03;20.70;;;5.90;99.90;;;;;;5010646;28;20196;-64
2023/12/15 05:11:38;;;;;;;34.37;20.30;;;5.80;99.90;;;;;;5010598;28;20243;-64
2023/12/15 05:14:05;;;;;;;35.43;19.50;;;5.80;99.90;;;;;;4988163;28;20243;-63
2023/12/15 05:16:32;;;;;;;32.40;20.20;;;5.80;99.90;;;;;;5008267;28;20684;-64
2023/12/15 05:18:59;;;;;;;35.90;20.20;;;5.90;99.90;;;;;;4992602;28;20200;-63
2023/12/15 05:21:26;;;;;;;27.87;18.50;;;5.90;99.90;;;;;;5003509;28;20189;-66
2023/12/15 05:23:53;;;;;;;38.60;20.23;;;5.90;99.90;;;;;;4988328;28;20208;-65
2023/12/15 05:26:20;;;;;;;32.03;17.43;;;5.90;99.90;;;;;;4990481;28;20203;-65
2023/12/15 05:28:47;;;;;;;35.87;19.63;;;5.90;99.90;;;;;;5007570;28;20193;-64
2023/12/15 05:31:14;;;;;;;40.17;19.83;;;5.90;99.90;;;;;;4997808;28;20542;-66
2023/12/15 05:33:42;;;;;;;33.10;19.53;;;5.90;99.90;;;;;;4991658;28;20201;-66
2023/12/15 05:36:20;;;;;;;27.77;19.20;;;5.90;99.90;;;;;;4992693;28;20204;-63
2023/12/15 05:38:52;;;;;;;35.13;20.13;;;5.90;99.90;;;;;;5008193;28;20211;-64
2023/12/15 05:41:19;;;;;;;36.60;20.27;;;6.00;99.90;;;;;;5005748;28;20251;-64
2023/12/15 05:43:46;;;;;;;33.10;19.77;;;6.00;99.90;;;;;;4971357;28;20209;-64
2023/12/15 05:46:14;;;;;;;32.20;20.20;;;6.00;99.90;;;;;;5003186;28;20188;-65
2023/12/15 05:48:41;;;;;;;44.47;21.53;;;6.00;99.90;;;;;;5002734;28;20192;-64
2023/12/15 05:51:08;;;;;;;30.87;19.33;;;6.00;99.90;;;;;;4997488;28;20270;-64
2023/12/15 05:53:36;;;;;;;34.33;19.87;;;6.00;99.90;;;;;;4988657;28;20211;-64
2023/12/15 05:56:21;;;;;;;36.40;20.73;;;6.00;99.90;;;;;;5002823;28;20199;-64
2023/12/15 05:58:49;;;;;;;32.93;21.03;;;6.00;99.90;;;;;;4991724;28;20296;-63
2023/12/15 06:01:16;;;;;;;33.10;19.30;;;6.00;99.90;;;;;;5004072;28;20200;-64
2023/12/15 06:03:43;;;;;;;39.03;21.40;;;6.10;99.90;;;;;;4999661;28;20209;-64
2023/12/15 06:06:13;;;;;;;37.93;19.40;;;6.00;99.90;;;;;;5004741;28;20287;-64
2023/12/15 06:08:40;;;;;;;34.83;18.97;;;6.10;99.90;;;;;;4983964;28;20271;-64
2023/12/15 06:11:07;;;;;;;32.33;20.30;;;6.10;99.90;;;;;;5012551;28;20217;-64
2023/12/15 06:13:34;;;;;;;35.87;21.57;;;6.10;99.90;;;;;;5009745;28;20192;-63
2023/12/15 06:16:01;;;;;;;39.47;21.33;;;6.10;99.90;;;;;;5019372;28;20312;-73
2023/12/15 06:18:28;;;;;;;34.70;21.93;;;6.10;99.90;;;;;;4987020;28;20204;-64
2023/12/15 06:20:55;;;;;;;35.23;20.33;;;6.10;99.90;;;;;;4990953;28;20216;-66
2023/12/15 06:23:22;;;;;;;41.43;23.30;;;6.10;99.90;;;;;;4993208;28;20308;-64
2023/12/15 06:25:49;;;;;;;38.00;21.40;;;6.10;99.90;;;;;;4980004;28;20576;-64
2023/12/15 06:28:16;;;;;;;40.93;22.80;;;6.20;99.90;;;;;;5009593;28;20774;-63
2023/12/15 06:30:43;;;;;;;49.13;25.93;;;6.10;99.90;;;;;;4996929;28;20604;-68
2023/12/15 06:33:10;;;;;;;43.63;26.63;;;6.20;99.90;;;;;;4999747;28;20215;-64
2023/12/15 06:35:37;;;;;;;44.93;29.63;;;6.20;99.90;;;;;;4982269;28;20224;-65
2023/12/15 06:38:05;;;;;;;43.93;29.00;;;6.20;99.90;;;;;;5000400;28;20201;-63
2023/12/15 06:40:32;;;;;;;40.87;24.17;;;6.20;99.90;;;;;;5012861;28;20193;-65
2023/12/15 06:42:59;;;;;;;38.37;22.17;;;6.20;99.90;;;;;;5012290;28;20201;-64
2023/12/15 06:45:26;;;;;;;36.30;21.00;;;6.20;99.90;;;;;;4978594;28;20213;-63
2023/12/15 06:47:53;;;;;;;36.03;19.23;;;6.20;99.90;;;;;;4978325;28;20240;-64
2023/12/15 06:50:20;;;;;;;40.73;20.37;;;6.20;99.90;;;;;;4995055;28;20708;-64
2023/12/15 06:52:49;;;;;;;41.17;20.37;;;6.30;99.90;;;;;;5013024;28;20258;-65
2023/12/15 06:55:16;;;;;;;39.43;21.47;;;6.30;99.90;;;;;;4978772;28;20221;-64
2023/12/15 06:57:46;;;;;;;38.53;21.60;;;6.30;99.90;;;;;;4994804;28;20200;-68
2023/12/15 07:00:13;;;;;;;37.20;19.67;;;6.30;99.90;;;;;;4997558;28;20197;-65
2023/12/15 07:02:40;;;;;;;36.47;20.50;;;6.30;99.90;;;;;;5011892;28;20211;-63
2023/12/15 07:05:08;;;;;;;43.20;21.20;;;6.30;99.90;;;;;;4993903;28;20212;-64
2023/12/15 07:07:35;;;;;;;36.23;18.53;;;6.30;99.90;;;;;;4994767;28;20656;-63
2023/12/15 07:10:03;;;;;;;51.23;21.37;;;6.30;99.90;;;;;;4993357;28;20212;-64
2023/12/15 07:12:30;;;;;;;48.43;22.83;;;6.30;99.90;;;;;;5009888;28;20219;-64
2023/12/15 07:14:57;;;;;;;41.07;19.63;;;6.30;99.90;;;;;;4994557;28;20224;-68
2023/12/15 07:17:24;;;;;;;43.03;20.80;;;6.30;99.90;;;;;;5012249;28;20204;-65
2023/12/15 07:19:51;;;;;;;42.77;21.90;;;6.30;99.90;;;;;;4994630;28;20202;-64
2023/12/15 07:22:18;;;;;;;39.80;20.47;;;6.40;99.90;;;;;;4992074;28;20197;-64
2023/12/15 07:24:46;;;;;;;50.50;22.53;;;6.40;99.90;;;;;;4994153;28;20200;-64
2023/12/15 07:27:13;;;;;;;51.73;21.80;;;6.40;99.90;;;;;;4994031;28;20356;-63
2023/12/15 07:29:40;;;;;;;46.07;20.87;;;6.40;99.90;;;;;;4991212;28;20653;-69
2023/12/15 07:32:07;;;;;;;54.30;22.13;;;6.40;99.90;;;;;;5006782;28;20197;-69
2023/12/15 07:34:35;;;;;;;53.50;21.03;;;6.40;99.90;;;;;;5003681;28;20587;-69
2023/12/15 07:37:02;;;;;;;44.40;21.00;;;6.40;99.90;;;;;;4996369;28;20286;-69
2023/12/15 07:39:29;;;;;;;47.97;21.57;;;6.40;99.90;;;;;;4993784;28;20189;-69
2023/12/15 07:41:56;;;;;;;46.00;21.03;;;6.40;99.90;;;;;;5012436;28;20255;-69
2023/12/15 07:44:23;;;;;;;40.07;20.63;;;6.40;99.90;;;;;;4993927;28;20550;-68
2023/12/15 07:46:53;;;;;;;52.23;20.93;;;6.40;99.90;;;;;;5011524;28;20231;-69
2023/12/15 07:49:21;;;;;;;45.23;20.27;;;6.40;99.90;;;;;;5009908;28;20185;-68
2023/12/15 07:51:50;;;;;;;53.10;20.53;;;6.40;99.90;;;;;;4987452;28;20720;-69
2023/12/15 07:54:20;;;;;;;51.50;21.07;;;6.50;99.90;;;;;;4981409;28;20548;-69
2023/12/15 07:56:47;;;;;;;48.57;20.50;;;6.50;99.90;;;;;;5010882;28;20268;-69
2023/12/15 07:59:14;;;;;;;49.60;21.50;;;6.50;99.90;;;;;;5011114;28;20604;-69
2023/12/15 08:01:55;;;;;;;48.47;21.53;;;6.50;99.90;;;;;;4992904;28;20290;-69
2023/12/15 08:04:22;;;;;;;53.67;21.07;;;6.50;99.90;;;;;;4992509;28;20205;-68
2023/12/15 08:06:49;;;;;;;46.57;22.53;;;6.50;99.90;;;;;;5010339;28;20201;-68
2023/12/15 08:09:16;;;;;;;48.87;21.87;;;6.60;99.90;;;;;;4992477;28;20205;-63
2023/12/15 08:11:43;;;;;;;53.60;21.90;;;6.60;99.90;;;;;;5004514;28;20271;-63
2023/12/15 08:14:11;;;;;;;58.60;21.27;;;6.60;99.90;;;;;;5006207;28;20636;-63
2023/12/15 08:16:38;;;;;;;59.37;21.00;;;6.60;99.90;;;;;;5011078;28;20288;-65
2023/12/15 08:19:07;;;;;;;62.43;22.37;;;6.60;99.90;;;;;;5010605;28;20204;-63
2023/12/15 08:21:34;;;;;;;55.40;22.80;;;6.70;99.90;;;;;;5006960;28;20530;-63
2023/12/15 08:24:01;;;;;;;57.80;22.73;;;6.70;99.90;;;;;;5009277;28;20197;-63
2023/12/15 08:26:28;;;;;;;49.77;22.07;;;6.70;99.90;;;;;;4992393;28;20228;-63
2023/12/15 08:28:56;;;;;;;55.60;23.27;;;6.70;99.90;;;;;;5008807;28;20728;-63
2023/12/15 08:31:23;;;;;;;57.17;21.93;;;6.80;99.90;;;;;;4992905;28;20303;-63
2023/12/15 08:33:52;;;;;;;49.97;22.50;;;6.80;99.90;;;;;;5010330;28;20213;-63
2023/12/15 08:36:20;;;;;;;65.67;22.60;;;6.80;99.90;;;;;;4979848;28;20221;-64
2023/12/15 08:38:47;;;;;;;56.70;23.83;;;6.80;99.90;;;;;;5008690;28;20276;-62
2023/12/15 08:41:14;;;;;;;57.27;21.83;;;6.80;99.90;;;;;;4989171;28;20190;-64
2023/12/15 08:43:41;;;;;;;58.37;22.53;;;6.80;99.90;;;;;;5008458;28;20201;-66
2023/12/15 08:46:08;;;;;;;50.77;22.07;;;6.90;99.90;;;;;;5009252;28;20300;-63
2023/12/15 08:48:35;;;;;;;57.50;23.13;;;6.80;99.90;;;;;;4996315;28;20203;-70
2023/12/15 08:51:02;;;;;;;55.17;22.57;;;6.80;99.90;;;;;;4991390;28;20200;-63
2023/12/15 08:53:29;;;;;;;53.43;21.90;;;6.90;99.90;;;;;;4974526;28;20630;-65
2023/12/15 08:55:56;;;;;;;53.57;21.43;;;6.90;99.90;;;;;;4991461;28;20217;-64
2023/12/15 08:58:24;;;;;;;61.13;22.40;;;6.90;99.90;;;;;;4989633;28;20284;-63
2023/12/15 09:00:51;;;;;;;69.07;22.93;;;6.90;99.90;;;;;;4990571;28;20951;-64
2023/12/15 09:03:18;;;;;;;55.70;20.43;;;7.00;99.90;;;;;;4990790;28;20200;-64
2023/12/15 09:05:45;;;;;;;57.77;21.87;;;7.00;99.90;;;;;;4980006;28;20281;-63
2023/12/15 09:08:32;;;;;;;51.00;22.37;;;7.10;99.90;;;;;;4989846;28;20731;-63
2023/12/15 09:10:59;;;;;;;62.30;23.23;;;7.10;99.90;;;;;;4991616;28;20185;-64
2023/12/15 09:13:26;;;;;;;58.83;24.60;;;7.10;99.90;;;;;;4991027;28;20224;-63
2023/12/15 09:15:54;;;;;;;58.00;23.27;;;7.20;99.90;;;;;;5009280;28;20212;-63
2023/12/15 09:18:21;;;;;;;59.30;23.17;;;7.20;99.90;;;;;;5008775;28;20263;-63
2023/12/15 09:20:48;;;;;;;50.13;23.20;;;7.30;99.90;;;;;;4990545;28;20703;-63
2023/12/15 09:23:15;;;;;;;50.90;22.50;;;7.30;99.90;;;;;;5007570;28;20204;-63
2023/12/15 09:25:47;;;;;;;68.00;24.70;;;7.40;99.90;;;;;;4990295;28;20657;-63
2023/12/15 09:28:14;;;;;;;59.33;25.60;;;7.50;99.90;;;;;;4992713;28;20305;-64
2023/12/15 09:30:42;;;;;;;58.03;23.33;;;7.60;99.90;;;;;;4990671;28;20216;-65
2023/12/15 09:33:09;;;;;;;62.07;23.87;;;7.60;99.90;;;;;;4988553;28;20603;-71
2023/12/15 09:35:36;;;;;;;58.03;24.83;;;7.70;99.90;;;;;;5003914;28;20208;-63
2023/12/15 09:38:04;;;;;;;70.03;27.43;;;7.80;99.90;;;;;;4991062;28;20263;-63
2023/12/15 09:40:32;;;;;;;54.20;24.93;;;7.80;99.90;;;;;;4991324;28;20196;-63
2023/12/15 09:43:00;;;;;;;58.77;26.17;;;7.80;99.90;;;;;;5008296;28;20193;-64
2023/12/15 09:45:28;;;;;;;56.47;24.37;;;7.80;99.90;;;;;;5008794;28;20263;-63
2023/12/15 09:47:56;;;;;;;52.30;23.87;;;7.80;99.90;;;;;;5007419;28;20207;-68
2023/12/15 09:50:27;;;;;;;68.40;25.70;;;7.80;99.90;;;;;;4999106;28;20222;-68
2023/12/15 09:52:55;;;;;;;53.13;25.63;;;7.90;99.90;;;;;;4978975;28;20254;-68
2023/12/15 09:55:24;;;;;;;55.80;25.20;;;7.90;99.90;;;;;;5009427;28;20209;-68
2023/12/15 09:57:53;;;;;;;62.53;26.47;;;8.00;99.90;;;;;;5008478;28;20201;-68
2023/12/15 10:00:20;;;;;;;61.67;26.97;;;8.00;99.90;;;;;;4991571;28;20219;-68
2023/12/15 10:02:47;;;;;;;58.37;25.00;;;8.10;99.90;;;;;;4991571;28;20200;-68
2023/12/15 10:05:15;;;;;;;62.27;27.27;;;8.10;99.90;;;;;;4991228;28;20255;-68
2023/12/15 10:07:44;;;;;;;70.50;30.80;;;8.20;99.90;;;;;;5011955;28;20206;-69
2023/12/15 10:10:11;;;;;;;62.47;28.67;;;8.20;99.90;;;;;;5009371;28;20203;-68
2023/12/15 10:12:39;;;;;;;56.23;28.30;;;8.30;99.90;;;;;;5006366;28;20291;-68
2023/12/15 10:15:06;;;;;;;67.77;27.67;;;8.30;99.90;;;;;;5009066;28;20197;-69
2023/12/15 10:17:34;;;;;;;54.47;26.03;;;8.30;99.90;;;;;;4990837;28;20697;-70
2023/12/15 10:20:06;;;;;;;59.50;28.17;;;8.30;99.90;;;;;;5005186;28;20252;-68
2023/12/15 10:22:34;;;;;;;61.13;28.10;;;8.30;99.90;;;;;;5007529;28;20212;-68
2023/12/15 10:25:19;;;;;;;64.90;27.80;;;8.30;99.90;;;;;;5003937;28;20366;-68
2023/12/15 10:27:48;;;;;;;50.93;27.50;;;8.30;99.90;;;;;;5005293;28;20397;-64
2023/12/15 10:30:19;;;;;;;65.03;27.50;;;8.20;99.90;;;;;;5007603;28;20193;-64
2023/12/15 10:32:47;;;;;;;62.50;27.07;;;8.30;99.90;;;;;;5010513;28;20264;-63
2023/12/15 10:35:16;;;;;;;58.93;27.43;;;8.40;99.90;;;;;;4990064;28;20212;-67
2023/12/15 10:37:45;;;;;;;56.97;28.53;;;8.30;99.90;;;;;;4990439;28;20193;-64
2023/12/15 10:40:13;;;;;;;58.90;29.10;;;8.30;99.90;;;;;;5008469;28;20672;-64
2023/12/15 10:42:41;;;;;;;51.47;25.60;;;8.20;99.90;;;;;;5001275;28;20304;-64
2023/12/15 10:45:09;;;;;;;52.87;26.03;;;8.20;99.90;;;;;;4990614;28;20616;-63
2023/12/15 10:47:37;;;;;;;55.17;28.10;;;8.10;99.90;;;;;;4988761;28;20628;-64
2023/12/15 10:50:07;;;;;;;44.63;26.43;;;8.10;99.90;;;;;;5008024;28;20251;-64
2023/12/15 10:52:39;;;;;;;48.33;28.07;;;8.10;99.90;;;;;;4990049;28;20197;-63
2023/12/15 10:55:07;;;;;;;59.20;26.40;;;8.10;99.90;;;;;;4977743;28;20215;-63
2023/12/15 10:57:34;;;;;;;52.83;27.37;;;8.10;99.90;;;;;;4970437;28;20189;-65
2023/12/15 11:00:03;;;;;;;50.13;26.10;;;8.10;99.90;;;;;;5001185;28;20617;-68
2023/12/15 11:02:31;;;;;;;50.60;26.03;;;8.20;99.90;;;;;;5008522;28;20201;-69
2023/12/15 11:04:59;;;;;;;47.57;26.00;;;8.20;99.90;;;;;;5008609;28;20653;-68
2023/12/15 11:07:28;;;;;;;39.07;24.30;;;8.20;99.90;;;;;;4987932;28;20672;-68
2023/12/15 11:09:59;;;;;;;46.73;26.77;;;8.20;99.90;;;;;;4990697;28;20209;-68
2023/12/15 11:12:39;;;;;;;44.23;24.83;;;8.20;99.90;;;;;;5003777;28;20241;-68
2023/12/15 11:15:17;;;;;;;40.23;24.17;;;8.20;99.90;;;;;;4975199;28;20204;-68
2023/12/15 11:17:52;;;;;;;44.77;24.73;;;8.20;99.90;;;;;;4987232;28;20627;-68
2023/12/15 11:20:20;;;;;;;45.70;24.60;;;8.20;99.90;;;;;;4995279;28;20288;-68
2023/12/15 11:22:58;;;;;;;45.33;24.67;;;8.20;99.90;;;;;;4995048;28;20319;-75
2023/12/15 11:25:31;;;;;;;52.80;27.43;;;8.20;99.90;;;;;;4995202;28;20207;-73
2023/12/15 11:28:08;;;;;;;54.40;25.77;;;8.20;99.90;;;;;;5010461;28;20259;-69
2023/12/15 11:30:41;;;;;;;41.80;24.37;;;8.20;99.90;;;;;;5012750;28;20275;-69
2023/12/15 11:33:26;;;;;;;52.43;27.40;;;8.20;99.90;;;;;;5021394;28;20271;-69
2023/12/15 11:35:59;;;;;;;56.03;25.07;;;8.20;99.90;;;;;;4994607;28;20240;-69
2023/12/15 11:38:27;;;;;;;50.23;28.57;;;8.30;99.90;;;;;;4986614;28;20695;-73
2023/12/15 11:40:54;;;;;;;50.67;26.93;;;8.40;99.90;;;;;;5010357;28;20200;-68
2023/12/15 11:43:25;;;;;;;44.23;24.20;;;8.40;99.90;;;;;;5011266;28;20251;-68
2023/12/15 11:45:53;;;;;;;45.47;24.00;;;8.40;99.90;;;;;;4993561;28;20235;-68
2023/12/15 11:48:24;;;;;;;53.80;27.50;;;8.40;99.90;;;;;;4993808;28;20641;-68
2023/12/15 11:50:51;;;;;;;55.03;27.63;;;8.50;99.90;;;;;;4999181;28;20330;-69
2023/12/15 11:53:18;;;;;;;62.97;32.60;;;8.50;99.90;;;;;;4993729;28;20593;-69
2023/12/15 11:55:50;;;;;;;66.10;32.03;;;8.50;99.90;;;;;;5009574;28;20300;-69
2023/12/15 11:58:21;;;;;;;83.00;36.73;;;8.50;99.90;;;;;;4993284;28;20223;-68
2023/12/15 12:00:49;;;;;;;59.27;29.47;;;8.60;99.90;;;;;;4993269;28;20231;-68
2023/12/15 12:03:16;;;;;;;65.17;29.80;;;8.50;99.90;;;;;;5010536;28;20216;-69
2023/12/15 12:05:48;;;;;;;65.23;28.47;;;8.50;99.90;;;;;;4993047;28;20197;-69
2023/12/15 12:08:17;;;;;;;56.90;30.43;;;8.60;99.90;;;;;;5010787;28;20197;-63
2023/12/15 12:10:44;;;;;;;54.90;31.67;;;8.60;99.90;;;;;;5010395;28;20216;-63
2023/12/15 12:13:12;;;;;;;50.73;26.47;;;8.60;99.90;;;;;;4992004;28;20193;-63
2023/12/15 12:15:53;;;;;;;66.03;32.80;;;8.70;99.90;;;;;;4976589;28;20300;-63
2023/12/15 12:18:21;;;;;;;60.83;29.53;;;8.70;99.90;;;;;;5009371;28;20212;-63
2023/12/15 12:20:48;;;;;;;52.60;27.83;;;8.80;99.90;;;;;;5003305;28;20194;-65
2023/12/15 12:23:16;;;;;;;70.83;31.20;;;8.90;99.90;;;;;;4992225;28;20718;-63
2023/12/15 12:25:55;;;;;;;62.87;32.43;;;8.90;99.90;;;;;;4987527;28;20193;-62
2023/12/15 12:28:27;;;;;;;61.07;31.93;;;9.00;99.90;;;;;;4990802;28;20336;-63
2023/12/15 12:30:54;;;;;;;53.70;29.47;;;8.80;99.90;;;;;;4989811;28;20359;-63
2023/12/15 12:33:24;;;;;;;50.37;29.13;;;8.80;99.90;;;;;;4982576;28;20649;-63
2023/12/15 12:35:52;;;;;;;59.27;33.83;;;8.80;99.90;;;;;;5009252;28;20287;-64
2023/12/15 12:38:20;;;;;;;64.63;31.70;;;8.80;99.90;;;;;;4991366;28;20693;-63
2023/12/15 12:40:47;;;;;;;59.87;29.80;;;8.80;99.90;;;;;;5010066;28;20276;-63
2023/12/15 12:43:17;;;;;;;55.40;31.63;;;8.80;99.90;;;;;;4989182;28;20225;-63
2023/12/15 12:45:44;;;;;;;55.27;30.17;;;8.90;99.90;;;;;;5009580;28;20193;-64
2023/12/15 12:48:11;;;;;;;53.90;31.43;;;9.00;99.90;;;;;;4991089;28;20978;-69